Aérodrome :
LOGIN :

S'inscrire | Disclaimer

   EN    FR    IT 

 










Légende :    VFR   VFR Marginal   IFR   IFR Intensif   IFR Très Intensif
Visi : 
Plafond : 
>= 8 km
>= 3000ft
5 à 8 km
1000 à 3000 ft
1500m à 5 km
500 à 1000 ft
800 à 1500m
200 à 500 ft
< 800m
< 200 ft
Symboles :   Orages  Brouillard  Fortes neiges  Fortes précipitations  Vent > 20 kt
SIGMETs :   Divers  Orages  Givrage  Turbulence  Onde Orograph.  Cendres Volcan.







- Altitude de l'aérodrome : 1521 ft
- Code IATA : NCY
- Voir les cartes d'approche


LFLP - Annecy

DERNIER METAR :
  • 210000Z AUTO 01004KT 330V030 CAVOK 11/09 Q1024

METARs EXPIRÉS :
  • 202330Z AUTO VRB02KT CAVOK 12/09 Q1024
  • 202300Z AUTO VRB03KT CAVOK 12/09 Q1024
  • 202230Z AUTO VRB01KT CAVOK 12/09 Q1024
  • 202200Z AUTO 34003KT CAVOK 14/09 Q1024

TAF TAF LFLP
Valide du 20 à 15h jusqu'au 21 à 15h UTC


201400Z 2015/2115 36008KT CAVOK
BECMG 2018/2021 VRB03KT
Pas de NOTAMs connus pour ce terrain.



MET'MAP, la Météo Aéronautique d'un coup d'oeil ! - Copyright ORBIFLY Décembre 2007 - Disclaimer

ORBIFLY MET'MAP TEAM :

Programmation & Développement : Alexandra Zaïnal
Conception & Développement : Baudouin d'Aumeries
Co-Programmation & Développement : Marc-Olivier Méhu
Soutien technique & logistique : Manuel Goepfert

Contact : metmap@orbifly.com




SOURCES & CREDITS :

   NOAA